x

Cape Edgecumbe - 25nm Ssw Of Cape Edgecumbe, Ak (46084) Wave Buoy

5:50pm - Wed 17th Sep 2014 All times are AKDT. -8 hours from GMT.

  • Sig Wave height 4.3ft
  • Peak Period 8s
  • Average Period 5s
  • Wind
    18mph, 20mph gusts
  • Sea Temp 59°f
  • Air Temp 56°f
  • Sea Pressure 1002.9mb
  • Cape Edgecumbe - 25nm Ssw Of Cape Edgecumbe, Ak
  • Cape Edgecumbe - 25nm Ssw Of Cape Edgecumbe, Ak

More Historic Weather Station data

Upgrade to MSW Pro to gain access to the past 30 days of data for over 8000 Wavebouys and Weather Stations around the globe.

Join Pro

Comparision Forecast

View Surf forecast
   
Wed 09/17 5:50pm 4.5ft 8s 5s 18 20 mph 1002.9mb 59f 56f
4:50pm 4.5ft 9s 6s 16 18 mph 1003.8mb 59f 56f
3:50pm 4ft 9s 6s 13 16 mph 1004.5mb 59f 56f
2:50pm 3.5ft 9s 6s 11 13 mph 1005.3mb 59f 57f
1:50pm 4.5ft 19s 7s 13 16 mph 1005.8mb 59f 57f
12:50pm 4.5ft 10s 7s 11 13 mph 1006.3mb 59f 56f
11:50am 5ft 19s 8s 9 11 mph 1006.5mb 59f 57f
10:50am 4.5ft 19s 8s 9
mph
1006.8mb 59f 57f
9:50am 5ft 19s 8s 7 9 mph 1007mb 59f 57f
8:50am 5ft 19s 8s 4 7 mph 1007.2mb 59f 56f
7:50am 5.5ft 19s 8s 4 7 mph 1007.5mb 59f 56f
6:50am 5.5ft 21s 8s 4 7 mph 1007.7mb 59f 56f
5:50am 5.5ft 9s 7s 4 7 mph 1008.2mb 59f 56f
4:50am 6.5ft 11s 8s 2 4 mph 1008.8mb 59f 57f
3:50am 5.5ft 9s 8s 7 11 mph 1009.2mb 59f 57f
2:50am 6ft 11s 8s 7 9 mph 1009.7mb 59f 57f
1:50am 6ft 11s 8s 7 9 mph 1010.2mb 59f 58f
12:50am 5ft 10s 7s 9 11 mph 1010.2mb 59f 58f
Tue 09/16 11:50pm 5.5ft 11s 8s 9 11 mph 1010.3mb 59f 58f
10:50pm 5ft 11s 7s 11
mph
1010.5mb 59f 58f
9:50pm 5ft 10s 7s 11 13 mph 1010.8mb 59f 58f
8:50pm 5ft 12s 7s 11 13 mph 1011mb 59f 58f
7:50pm 6ft 11s 7s 11 13 mph 1011.2mb 59f 58f
6:50pm 5.5ft 11s 7s 11 13 mph 1011.3mb 59f 58f
5:50pm 6ft 12s 8s 11 16 mph 1011.4mb 60f 58f
4:50pm 6.5ft 12s 8s 9 11 mph 1011.8mb 60f 58f
3:50pm 6ft 12s 8s 9 11 mph 1012.2mb 60f 59f
2:50pm 7ft 12s 9s 9 11 mph 1012.6mb 59f 58f
1:50pm 7.5ft 11s 9s 11 13 mph 1012.6mb 59f 58f
12:50pm 8ft 11s 9s 9 11 mph 1012.7mb 59f 58f
11:50am 7ft 11s 8s 11 13 mph 1012.5mb 59f 58f
10:50am 7ft 13s 8s 11 16 mph 1012.3mb 59f 58f
9:50am 6.5ft 11s 8s 11 13 mph 1012.2mb 59f 58f
8:50am 6ft 13s 7s 13 16 mph 1012mb 59f 58f
7:50am 6.5ft 13s 8s 13
mph
1011.9mb 59f 58f
6:50am 6ft 13s 7s 13 16 mph 1011.7mb 59f 58f
5:50am 6ft 14s 7s 16 18 mph 1011.6mb 59f 58f
4:50am 7ft 14s 8s 13 16 mph 1011.7mb 59f 58f
3:50am 7ft 13s 8s 16 18 mph 1011.9mb 59f 58f
2:50am 7ft 13s 8s 13 16 mph 1011.9mb 59f 58f
1:50am 6.5ft 13s 7s 13 16 mph 1011.8mb 59f 57f
12:50am 7.5ft 13s 8s 16 18 mph 1011.6mb 59f 57f
Mon 09/15 11:50pm 9ft 12s 8s 11 13 mph 1011.5mb 59f 58f
10:50pm 8.5ft 11s 8s 13 16 mph 1011.6mb 59f 58f
9:50pm 7ft 13s 8s 11 13 mph 1011.7mb 59f 58f
8:50pm 8ft 14s 9s 11 13 mph 1011.6mb 59f 58f
7:50pm 7ft 14s 8s 11 13 mph 1011.6mb 59f 58f
6:50pm 7.5ft 14s 8s 11 13 mph 1011.7mb 59f 58f
5:50pm 7ft 14s 8s 13 16 mph 1011.7mb 59f 58f
4:50pm 7ft 14s 8s 11 13 mph 1011.9mb 59f 58f
3:50pm 7.5ft 14s 8s 13 16 mph 1012.3mb 59f 58f
2:50pm 8ft 13s 8s 13 16 mph 1012.5mb 59f 58f
1:50pm 7.5ft 15s 8s 13 16 mph 1012.7mb 59f 58f
12:50pm 7.5ft 14s 7s 16 18 mph 1012.7mb 59f 57f
11:50am 7ft 14s 7s 16 18 mph 1012.5mb 59f 57f
10:50am 7ft 9s 6s 18 20 mph 1012.5mb 59f 57f
9:50am 6.5ft 8s 6s 18 20 mph 1012.2mb 59f 56f
8:50am 6ft 9s 6s 18 20 mph 1012.2mb 59f 56f
7:50am 5.5ft 9s 6s 18 20 mph 1012.1mb 59f 56f
6:50am 5ft 8s 5s 18 20 mph 1012.2mb 59f 56f
5:50am 5ft 9s 6s 16 20 mph 1012.2mb 59f 56f
4:50am 5ft 10s 6s 16 18 mph 1012.5mb 59f 56f
3:50am 5ft 9s 6s 16 18 mph 1012.7mb 59f 57f
2:50am 5.5ft 9s 6s 13 16 mph 1013.1mb 59f 56f
1:50am 5ft 11s 7s 16
mph
1013.4mb 59f 56f
12:50am 6ft 10s 7s 11 13 mph 1013.6mb 59f 57f
Sun 09/14 11:50pm 6ft 10s 7s 11 13 mph 1013.7mb 59f 58f
10:50pm 6ft 9s 7s 11 13 mph 1013.7mb 59f 57f
9:50pm 6.5ft 9s 7s 9 11 mph 1013.7mb 59f 57f
8:50pm 7ft 9s 7s 9
mph
1013.9mb 59f 57f
7:50pm 6.5ft 9s 7s 11 13 mph 1014mb 59f 57f
6:50pm 6ft 9s 7s 9 11 mph 1014.2mb 59f 57f
5:50pm 7ft 9s 7s 7 9 mph 1014.7mb 60f 57f
4:50pm 6.5ft 9s 7s 9 11 mph 1015.1mb 60f 56f
3:50pm 6ft 9s 7s 11 13 mph 1015.5mb 60f 57f
2:50pm 6ft 9s 7s 4 7 mph 1016.3mb 59f 58f
1:50pm 5.5ft 9s 7s 4 7 mph 1016.6mb 59f 58f
12:50pm 7ft 10s 8s 7 9 mph 1017mb 59f 56f
11:50am 6ft 9s 7s 9
mph
1016.9mb 59f 56f
10:50am 5.5ft 9s 7s 9 11 mph 1016.8mb 59f 55f
9:50am 6ft 9s 7s 7 9 mph 1016.9mb 59f 56f
8:50am 6ft 9s 7s 7 9 mph 1016.9mb 59f 56f
7:50am 7ft 9s 7s 7
mph
1017mb 59f 56f
6:50am 7ft 10s 7s 2 4 mph 1017.2mb 59f 56f
5:50am 7.5ft 10s 7s 4 9 mph 1017.3mb 59f 56f
4:50am 8ft 10s 8s 4
mph
1017.6mb 59f 56f
3:50am 7ft 9s 8s 4 7 mph 1017.6mb 59f 56f
2:50am 7ft 10s 8s 2 4 mph 1017.7mb 59f 58f